sensor_id;sensor_type;location;lat;lon;timestamp;temperature;humidity
16893;DHT22;8563;52.242;9.098;2024-03-02T00:00:35;8.30;99.90
16893;DHT22;8563;52.242;9.098;2024-03-02T00:03:07;8.30;99.90
16893;DHT22;8563;52.242;9.098;2024-03-02T00:05:41;8.20;99.90
16893;DHT22;8563;52.242;9.098;2024-03-02T00:08:14;8.20;99.90
16893;DHT22;8563;52.242;9.098;2024-03-02T00:10:53;8.20;99.90
16893;DHT22;8563;52.242;9.098;2024-03-02T00:13:29;8.20;99.90
16893;DHT22;8563;52.242;9.098;2024-03-02T00:16:03;8.20;99.90
16893;DHT22;8563;52.242;9.098;2024-03-02T00:18:37;8.10;99.90
16893;DHT22;8563;52.242;9.098;2024-03-02T00:21:10;8.20;99.90
16893;DHT22;8563;52.242;9.098;2024-03-02T00:23:44;8.10;99.90
16893;DHT22;8563;52.242;9.098;2024-03-02T00:26:18;8.10;99.90
16893;DHT22;8563;52.242;9.098;2024-03-02T00:28:52;8.10;99.90
16893;DHT22;8563;52.242;9.098;2024-03-02T00:31:26;8.10;99.90
16893;DHT22;8563;52.242;9.098;2024-03-02T00:34:01;8.10;99.90
16893;DHT22;8563;52.242;9.098;2024-03-02T00:36:35;8.10;99.90
16893;DHT22;8563;52.242;9.098;2024-03-02T00:39:07;8.10;99.90
16893;DHT22;8563;52.242;9.098;2024-03-02T00:41:41;8.00;99.90
16893;DHT22;8563;52.242;9.098;2024-03-02T00:44:15;8.00;99.90
16893;DHT22;8563;52.242;9.098;2024-03-02T00:46:48;8.00;99.90
16893;DHT22;8563;52.242;9.098;2024-03-02T00:49:22;8.00;99.90
16893;DHT22;8563;52.242;9.098;2024-03-02T00:51:54;8.00;99.90
16893;DHT22;8563;52.242;9.098;2024-03-02T00:54:27;7.90;99.90
16893;DHT22;8563;52.242;9.098;2024-03-02T00:57:01;7.90;99.90
16893;DHT22;8563;52.242;9.098;2024-03-02T00:59:33;7.90;99.90
16893;DHT22;8563;52.242;9.098;2024-03-02T01:02:05;7.90;99.90
16893;DHT22;8563;52.242;9.098;2024-03-02T01:04:38;7.90;99.90
16893;DHT22;8563;52.242;9.098;2024-03-02T01:07:10;7.90;99.90
16893;DHT22;8563;52.242;9.098;2024-03-02T01:09:42;7.80;99.90
16893;DHT22;8563;52.242;9.098;2024-03-02T01:12:17;7.80;99.90
16893;DHT22;8563;52.242;9.098;2024-03-02T01:14:49;7.80;99.90
16893;DHT22;8563;52.242;9.098;2024-03-02T01:17:21;7.80;99.90
16893;DHT22;8563;52.242;9.098;2024-03-02T01:19:54;7.70;99.90
16893;DHT22;8563;52.242;9.098;2024-03-02T01:22:26;7.70;99.90
16893;DHT22;8563;52.242;9.098;2024-03-02T01:24:58;7.70;99.90
16893;DHT22;8563;52.242;9.098;2024-03-02T01:27:32;7.70;99.90
16893;DHT22;8563;52.242;9.098;2024-03-02T01:30:06;7.70;99.90
16893;DHT22;8563;52.242;9.098;2024-03-02T01:32:38;7.70;99.90
16893;DHT22;8563;52.242;9.098;2024-03-02T01:35:10;7.70;99.90
16893;DHT22;8563;52.242;9.098;2024-03-02T01:37:43;7.70;99.90
16893;DHT22;8563;52.242;9.098;2024-03-02T01:40:15;7.70;99.90
16893;DHT22;8563;52.242;9.098;2024-03-02T01:42:49;7.70;99.90
16893;DHT22;8563;52.242;9.098;2024-03-02T01:45:21;7.60;99.90
16893;DHT22;8563;52.242;9.098;2024-03-02T01:47:53;7.60;99.90
16893;DHT22;8563;52.242;9.098;2024-03-02T01:50:28;7.60;99.90
16893;DHT22;8563;52.242;9.098;2024-03-02T01:53:01;7.60;99.90
16893;DHT22;8563;52.242;9.098;2024-03-02T01:55:34;7.70;99.90
16893;DHT22;8563;52.242;9.098;2024-03-02T01:58:08;7.70;99.90
16893;DHT22;8563;52.242;9.098;2024-03-02T02:00:40;7.70;99.90
16893;DHT22;8563;52.242;9.098;2024-03-02T02:03:12;7.60;99.90
16893;DHT22;8563;52.242;9.098;2024-03-02T02:05:45;7.60;99.90
16893;DHT22;8563;52.242;9.098;2024-03-02T02:08:18;7.60;99.90
16893;DHT22;8563;52.242;9.098;2024-03-02T02:10:51;7.60;99.90
16893;DHT22;8563;52.242;9.098;2024-03-02T02:13:24;7.60;99.90
16893;DHT22;8563;52.242;9.098;2024-03-02T02:16:04;7.60;99.90
16893;DHT22;8563;52.242;9.098;2024-03-02T02:18:37;7.50;99.90
16893;DHT22;8563;52.242;9.098;2024-03-02T02:21:09;7.50;99.90
16893;DHT22;8563;52.242;9.098;2024-03-02T02:23:43;7.50;99.90
16893;DHT22;8563;52.242;9.098;2024-03-02T02:26:19;7.50;99.90
16893;DHT22;8563;52.242;9.098;2024-03-02T02:28:51;7.50;99.90
16893;DHT22;8563;52.242;9.098;2024-03-02T02:31:23;7.50;99.90
16893;DHT22;8563;52.242;9.098;2024-03-02T02:33:56;7.50;99.90
16893;DHT22;8563;52.242;9.098;2024-03-02T02:36:28;7.50;99.90
16893;DHT22;8563;52.242;9.098;2024-03-02T02:39:03;7.50;99.90
16893;DHT22;8563;52.242;9.098;2024-03-02T02:41:36;7.50;99.90
16893;DHT22;8563;52.242;9.098;2024-03-02T02:44:08;7.50;99.90
16893;DHT22;8563;52.242;9.098;2024-03-02T02:46:42;7.50;99.90
16893;DHT22;8563;52.242;9.098;2024-03-02T02:49:14;7.50;99.90
16893;DHT22;8563;52.242;9.098;2024-03-02T02:51:46;7.40;99.90
16893;DHT22;8563;52.242;9.098;2024-03-02T02:54:20;7.40;99.90
16893;DHT22;8563;52.242;9.098;2024-03-02T02:56:53;7.40;99.90
16893;DHT22;8563;52.242;9.098;2024-03-02T02:59:25;7.40;99.90
16893;DHT22;8563;52.242;9.098;2024-03-02T03:01:57;7.40;99.90
16893;DHT22;8563;52.242;9.098;2024-03-02T03:04:29;7.40;99.90
16893;DHT22;8563;52.242;9.098;2024-03-02T03:07:02;7.40;99.90
16893;DHT22;8563;52.242;9.098;2024-03-02T03:09:37;7.40;99.90
16893;DHT22;8563;52.242;9.098;2024-03-02T03:12:09;7.30;99.90
16893;DHT22;8563;52.242;9.098;2024-03-02T03:14:42;7.30;99.90
16893;DHT22;8563;52.242;9.098;2024-03-02T03:17:14;7.40;99.90
16893;DHT22;8563;52.242;9.098;2024-03-02T03:19:46;7.40;99.90
16893;DHT22;8563;52.242;9.098;2024-03-02T03:22:18;7.30;99.90
16893;DHT22;8563;52.242;9.098;2024-03-02T03:24:52;7.30;99.90
16893;DHT22;8563;52.242;9.098;2024-03-02T03:27:24;7.30;99.90
16893;DHT22;8563;52.242;9.098;2024-03-02T03:29:57;7.30;99.90
16893;DHT22;8563;52.242;9.098;2024-03-02T03:32:29;7.30;99.90
16893;DHT22;8563;52.242;9.098;2024-03-02T03:35:01;7.30;99.90
16893;DHT22;8563;52.242;9.098;2024-03-02T03:37:33;7.30;99.90
16893;DHT22;8563;52.242;9.098;2024-03-02T03:40:08;7.30;99.90
16893;DHT22;8563;52.242;9.098;2024-03-02T03:42:41;7.30;99.90
16893;DHT22;8563;52.242;9.098;2024-03-02T03:45:15;7.20;99.90
16893;DHT22;8563;52.242;9.098;2024-03-02T03:47:47;7.20;99.90
16893;DHT22;8563;52.242;9.098;2024-03-02T03:50:19;7.20;99.90
16893;DHT22;8563;52.242;9.098;2024-03-02T03:52:51;7.20;99.90
16893;DHT22;8563;52.242;9.098;2024-03-02T03:55:25;7.20;99.90
16893;DHT22;8563;52.242;9.098;2024-03-02T03:57:58;7.10;99.90
16893;DHT22;8563;52.242;9.098;2024-03-02T04:00:30;7.10;99.90
16893;DHT22;8563;52.242;9.098;2024-03-02T04:03:02;7.10;99.90
16893;DHT22;8563;52.242;9.098;2024-03-02T04:05:34;7.20;99.90
16893;DHT22;8563;52.242;9.098;2024-03-02T04:08:07;7.20;99.90
16893;DHT22;8563;52.242;9.098;2024-03-02T04:10:40;7.20;99.90
16893;DHT22;8563;52.242;9.098;2024-03-02T04:13:13;7.20;99.90
16893;DHT22;8563;52.242;9.098;2024-03-02T04:15:45;7.20;99.90
16893;DHT22;8563;52.242;9.098;2024-03-02T04:18:17;7.20;99.90
16893;DHT22;8563;52.242;9.098;2024-03-02T04:20:50;7.20;99.90
16893;DHT22;8563;52.242;9.098;2024-03-02T04:23:22;7.30;99.90
16893;DHT22;8563;52.242;9.098;2024-03-02T04:25:55;7.30;99.90
16893;DHT22;8563;52.242;9.098;2024-03-02T04:28:28;7.30;99.90
16893;DHT22;8563;52.242;9.098;2024-03-02T04:31:00;7.30;99.90
16893;DHT22;8563;52.242;9.098;2024-03-02T04:33:32;7.40;99.90
16893;DHT22;8563;52.242;9.098;2024-03-02T04:36:05;7.40;99.90
16893;DHT22;8563;52.242;9.098;2024-03-02T04:38:39;7.40;99.90
16893;DHT22;8563;52.242;9.098;2024-03-02T04:41:13;7.40;99.90
16893;DHT22;8563;52.242;9.098;2024-03-02T04:43:45;7.50;99.90
16893;DHT22;8563;52.242;9.098;2024-03-02T04:46:17;7.40;99.90
16893;DHT22;8563;52.242;9.098;2024-03-02T04:48:49;7.40;99.90
16893;DHT22;8563;52.242;9.098;2024-03-02T04:51:26;7.40;99.90
16893;DHT22;8563;52.242;9.098;2024-03-02T04:53:58;7.40;99.90
16893;DHT22;8563;52.242;9.098;2024-03-02T04:56:32;7.30;99.90
16893;DHT22;8563;52.242;9.098;2024-03-02T04:59:20;7.40;99.90
16893;DHT22;8563;52.242;9.098;2024-03-02T05:01:52;7.40;99.90
16893;DHT22;8563;52.242;9.098;2024-03-02T05:04:24;7.30;99.90
16893;DHT22;8563;52.242;9.098;2024-03-02T05:06:57;7.30;99.90
16893;DHT22;8563;52.242;9.098;2024-03-02T05:09:29;7.30;99.90
16893;DHT22;8563;52.242;9.098;2024-03-02T05:12:03;7.20;99.90
16893;DHT22;8563;52.242;9.098;2024-03-02T05:14:48;7.30;99.90
16893;DHT22;8563;52.242;9.098;2024-03-02T05:17:20;7.30;99.90
16893;DHT22;8563;52.242;9.098;2024-03-02T05:19:55;7.30;99.90
16893;DHT22;8563;52.242;9.098;2024-03-02T05:22:28;7.30;99.90
16893;DHT22;8563;52.242;9.098;2024-03-02T05:25:00;7.30;99.90
16893;DHT22;8563;52.242;9.098;2024-03-02T05:27:34;7.30;99.90
16893;DHT22;8563;52.242;9.098;2024-03-02T05:30:07;7.30;99.90
16893;DHT22;8563;52.242;9.098;2024-03-02T05:32:40;7.30;99.90
16893;DHT22;8563;52.242;9.098;2024-03-02T05:35:12;7.20;99.90
16893;DHT22;8563;52.242;9.098;2024-03-02T05:37:44;7.20;99.90
16893;DHT22;8563;52.242;9.098;2024-03-02T05:40:17;7.20;99.90
16893;DHT22;8563;52.242;9.098;2024-03-02T05:42:50;7.20;99.90
16893;DHT22;8563;52.242;9.098;2024-03-02T05:45:22;7.20;99.90
16893;DHT22;8563;52.242;9.098;2024-03-02T05:47:55;7.20;99.90
16893;DHT22;8563;52.242;9.098;2024-03-02T05:50:27;7.20;99.90
16893;DHT22;8563;52.242;9.098;2024-03-02T05:52:59;7.20;99.90
16893;DHT22;8563;52.242;9.098;2024-03-02T05:55:31;7.20;99.90
16893;DHT22;8563;52.242;9.098;2024-03-02T05:58:05;7.10;99.90
16893;DHT22;8563;52.242;9.098;2024-03-02T06:00:53;7.10;99.90
16893;DHT22;8563;52.242;9.098;2024-03-02T06:03:26;7.10;99.90
16893;DHT22;8563;52.242;9.098;2024-03-02T06:05:59;7.10;99.90
16893;DHT22;8563;52.242;9.098;2024-03-02T06:08:31;7.10;99.90
16893;DHT22;8563;52.242;9.098;2024-03-02T06:11:03;7.10;99.90
16893;DHT22;8563;52.242;9.098;2024-03-02T06:13:37;7.10;99.90
16893;DHT22;8563;52.242;9.098;2024-03-02T06:16:10;7.10;99.90
16893;DHT22;8563;52.242;9.098;2024-03-02T06:18:42;7.10;99.90
16893;DHT22;8563;52.242;9.098;2024-03-02T06:21:14;7.20;99.90
16893;DHT22;8563;52.242;9.098;2024-03-02T06:23:46;7.20;99.90
16893;DHT22;8563;52.242;9.098;2024-03-02T06:26:19;7.20;99.90
16893;DHT22;8563;52.242;9.098;2024-03-02T06:28:52;7.20;99.90
16893;DHT22;8563;52.242;9.098;2024-03-02T06:31:24;7.30;99.90
16893;DHT22;8563;52.242;9.098;2024-03-02T06:33:57;7.30;99.90
16893;DHT22;8563;52.242;9.098;2024-03-02T06:36:29;7.40;99.90
16893;DHT22;8563;52.242;9.098;2024-03-02T06:39:01;7.40;99.90
16893;DHT22;8563;52.242;9.098;2024-03-02T06:41:34;7.50;99.90
16893;DHT22;8563;52.242;9.098;2024-03-02T06:44:07;7.50;99.90
16893;DHT22;8563;52.242;9.098;2024-03-02T06:46:40;7.60;99.90
16893;DHT22;8563;52.242;9.098;2024-03-02T06:49:12;7.60;99.90
16893;DHT22;8563;52.242;9.098;2024-03-02T06:51:44;7.70;99.90
16893;DHT22;8563;52.242;9.098;2024-03-02T06:54:16;7.70;99.90
16893;DHT22;8563;52.242;9.098;2024-03-02T06:56:49;7.80;99.90
16893;DHT22;8563;52.242;9.098;2024-03-02T06:59:23;7.90;99.90
16893;DHT22;8563;52.242;9.098;2024-03-02T07:01:55;7.90;99.90
16893;DHT22;8563;52.242;9.098;2024-03-02T07:04:27;8.00;99.90
16893;DHT22;8563;52.242;9.098;2024-03-02T07:07:00;8.10;99.90
16893;DHT22;8563;52.242;9.098;2024-03-02T07:09:32;8.10;99.90
16893;DHT22;8563;52.242;9.098;2024-03-02T07:12:07;8.20;99.90
16893;DHT22;8563;52.242;9.098;2024-03-02T07:14:40;8.20;99.90
16893;DHT22;8563;52.242;9.098;2024-03-02T07:17:42;8.30;99.90
16893;DHT22;8563;52.242;9.098;2024-03-02T07:20:14;8.40;99.90
16893;DHT22;8563;52.242;9.098;2024-03-02T07:22:46;8.50;99.90
16893;DHT22;8563;52.242;9.098;2024-03-02T07:25:18;8.60;99.90
16893;DHT22;8563;52.242;9.098;2024-03-02T07:27:51;8.70;99.90
16893;DHT22;8563;52.242;9.098;2024-03-02T07:30:25;8.70;99.90
16893;DHT22;8563;52.242;9.098;2024-03-02T07:32:57;8.70;99.90
16893;DHT22;8563;52.242;9.098;2024-03-02T07:35:29;8.80;99.90
16893;DHT22;8563;52.242;9.098;2024-03-02T07:38:02;8.80;99.90
16893;DHT22;8563;52.242;9.098;2024-03-02T07:40:35;8.80;99.90
16893;DHT22;8563;52.242;9.098;2024-03-02T07:43:07;8.90;99.90
16893;DHT22;8563;52.242;9.098;2024-03-02T07:45:41;8.90;99.90
16893;DHT22;8563;52.242;9.098;2024-03-02T07:48:13;8.80;99.90
16893;DHT22;8563;52.242;9.098;2024-03-02T07:50:46;8.90;99.90
16893;DHT22;8563;52.242;9.098;2024-03-02T07:53:18;8.80;99.90
16893;DHT22;8563;52.242;9.098;2024-03-02T07:55:50;8.90;99.90
16893;DHT22;8563;52.242;9.098;2024-03-02T07:58:23;8.90;99.90
16893;DHT22;8563;52.242;9.098;2024-03-02T08:00:56;8.80;99.90
16893;DHT22;8563;52.242;9.098;2024-03-02T08:03:28;8.90;99.90
16893;DHT22;8563;52.242;9.098;2024-03-02T08:06:03;8.90;99.90
16893;DHT22;8563;52.242;9.098;2024-03-02T08:08:35;8.90;99.90
16893;DHT22;8563;52.242;9.098;2024-03-02T08:11:07;8.90;99.90
16893;DHT22;8563;52.242;9.098;2024-03-02T08:13:41;8.90;99.90
16893;DHT22;8563;52.242;9.098;2024-03-02T08:16:15;8.90;99.90
16893;DHT22;8563;52.242;9.098;2024-03-02T08:18:50;8.80;99.90
16893;DHT22;8563;52.242;9.098;2024-03-02T08:21:22;8.90;99.90
16893;DHT22;8563;52.242;9.098;2024-03-02T08:23:54;8.80;99.90
16893;DHT22;8563;52.242;9.098;2024-03-02T08:26:27;8.80;99.90
16893;DHT22;8563;52.242;9.098;2024-03-02T08:29:02;8.80;99.90
16893;DHT22;8563;52.242;9.098;2024-03-02T08:31:35;8.80;99.90
16893;DHT22;8563;52.242;9.098;2024-03-02T08:34:08;8.80;99.90
16893;DHT22;8563;52.242;9.098;2024-03-02T08:36:40;8.80;99.90
16893;DHT22;8563;52.242;9.098;2024-03-02T08:39:13;8.80;99.90
16893;DHT22;8563;52.242;9.098;2024-03-02T08:41:46;8.80;99.90
16893;DHT22;8563;52.242;9.098;2024-03-02T08:44:18;8.90;99.90
16893;DHT22;8563;52.242;9.098;2024-03-02T08:46:52;8.90;99.90
16893;DHT22;8563;52.242;9.098;2024-03-02T08:49:24;8.90;99.90
16893;DHT22;8563;52.242;9.098;2024-03-02T08:51:57;9.00;99.90
16893;DHT22;8563;52.242;9.098;2024-03-02T08:54:29;9.10;99.90
16893;DHT22;8563;52.242;9.098;2024-03-02T08:57:02;9.30;99.90
16893;DHT22;8563;52.242;9.098;2024-03-02T08:59:34;9.40;99.90
16893;DHT22;8563;52.242;9.098;2024-03-02T09:02:08;9.50;99.90
16893;DHT22;8563;52.242;9.098;2024-03-02T09:04:40;9.70;99.90
16893;DHT22;8563;52.242;9.098;2024-03-02T09:07:13;9.80;99.90
16893;DHT22;8563;52.242;9.098;2024-03-02T09:09:45;10.00;99.90
16893;DHT22;8563;52.242;9.098;2024-03-02T09:12:17;10.20;99.90
16893;DHT22;8563;52.242;9.098;2024-03-02T09:18:10;10.60;99.90
16893;DHT22;8563;52.242;9.098;2024-03-02T09:20:42;10.70;99.90
16893;DHT22;8563;52.242;9.098;2024-03-02T09:23:14;10.80;99.90
16893;DHT22;8563;52.242;9.098;2024-03-02T09:25:47;10.80;99.90
16893;DHT22;8563;52.242;9.098;2024-03-02T09:28:19;11.00;99.90
16893;DHT22;8563;52.242;9.098;2024-03-02T09:30:51;10.90;99.90
16893;DHT22;8563;52.242;9.098;2024-03-02T09:33:26;10.90;99.90
16893;DHT22;8563;52.242;9.098;2024-03-02T09:35:58;10.80;99.90
16893;DHT22;8563;52.242;9.098;2024-03-02T09:38:32;10.70;99.90
16893;DHT22;8563;52.242;9.098;2024-03-02T09:41:04;10.60;99.90
16893;DHT22;8563;52.242;9.098;2024-03-02T09:43:36;10.60;99.90
16893;DHT22;8563;52.242;9.098;2024-03-02T09:46:10;10.80;99.90
16893;DHT22;8563;52.242;9.098;2024-03-02T09:48:44;10.90;99.90
16893;DHT22;8563;52.242;9.098;2024-03-02T09:51:17;10.90;99.90
16893;DHT22;8563;52.242;9.098;2024-03-02T09:53:50;10.90;99.90
16893;DHT22;8563;52.242;9.098;2024-03-02T09:56:24;10.90;99.90
16893;DHT22;8563;52.242;9.098;2024-03-02T09:58:56;11.00;99.90
16893;DHT22;8563;52.242;9.098;2024-03-02T10:01:28;11.20;99.90
16893;DHT22;8563;52.242;9.098;2024-03-02T10:04:02;11.30;99.90
16893;DHT22;8563;52.242;9.098;2024-03-02T10:06:34;11.40;99.90
16893;DHT22;8563;52.242;9.098;2024-03-02T10:09:06;11.40;99.90
16893;DHT22;8563;52.242;9.098;2024-03-02T10:11:38;11.40;99.90
16893;DHT22;8563;52.242;9.098;2024-03-02T10:14:12;11.50;99.90
16893;DHT22;8563;52.242;9.098;2024-03-02T10:16:45;11.60;99.90
16893;DHT22;8563;52.242;9.098;2024-03-02T10:19:20;11.70;99.90
16893;DHT22;8563;52.242;9.098;2024-03-02T10:21:53;11.80;99.90
16893;DHT22;8563;52.242;9.098;2024-03-02T10:24:28;11.80;99.90
16893;DHT22;8563;52.242;9.098;2024-03-02T10:27:10;11.90;99.90
16893;DHT22;8563;52.242;9.098;2024-03-02T10:29:45;12.10;99.90
16893;DHT22;8563;52.242;9.098;2024-03-02T10:32:17;12.20;99.90
16893;DHT22;8563;52.242;9.098;2024-03-02T10:34:52;12.20;99.90
16893;DHT22;8563;52.242;9.098;2024-03-02T10:37:24;12.10;99.90
16893;DHT22;8563;52.242;9.098;2024-03-02T10:39:56;12.10;99.90
16893;DHT22;8563;52.242;9.098;2024-03-02T10:42:28;12.00;99.90
16893;DHT22;8563;52.242;9.098;2024-03-02T10:45:01;12.10;99.90
16893;DHT22;8563;52.242;9.098;2024-03-02T10:47:33;12.10;99.90
16893;DHT22;8563;52.242;9.098;2024-03-02T10:50:10;12.20;99.90
16893;DHT22;8563;52.242;9.098;2024-03-02T10:52:42;12.30;99.90
16893;DHT22;8563;52.242;9.098;2024-03-02T10:55:15;12.40;99.90
16893;DHT22;8563;52.242;9.098;2024-03-02T10:57:51;12.40;99.90
16893;DHT22;8563;52.242;9.098;2024-03-02T11:00:24;12.50;99.90
16893;DHT22;8563;52.242;9.098;2024-03-02T11:03:05;12.60;99.90
16893;DHT22;8563;52.242;9.098;2024-03-02T11:05:44;12.70;99.90
16893;DHT22;8563;52.242;9.098;2024-03-02T11:08:18;12.60;99.90
16893;DHT22;8563;52.242;9.098;2024-03-02T11:10:54;12.70;99.90
16893;DHT22;8563;52.242;9.098;2024-03-02T11:13:32;12.70;99.90
16893;DHT22;8563;52.242;9.098;2024-03-02T11:16:17;12.80;99.90
16893;DHT22;8563;52.242;9.098;2024-03-02T11:18:50;12.90;99.90
16893;DHT22;8563;52.242;9.098;2024-03-02T11:21:24;12.80;99.90
16893;DHT22;8563;52.242;9.098;2024-03-02T11:23:57;12.90;99.90
16893;DHT22;8563;52.242;9.098;2024-03-02T11:26:29;13.00;99.90
16893;DHT22;8563;52.242;9.098;2024-03-02T11:29:43;13.00;99.90
16893;DHT22;8563;52.242;9.098;2024-03-02T11:32:17;13.00;99.90
16893;DHT22;8563;52.242;9.098;2024-03-02T11:34:50;13.10;99.90
16893;DHT22;8563;52.242;9.098;2024-03-02T11:37:25;13.10;99.90
16893;DHT22;8563;52.242;9.098;2024-03-02T11:39:57;13.20;99.90
16893;DHT22;8563;52.242;9.098;2024-03-02T11:42:29;13.20;99.90
16893;DHT22;8563;52.242;9.098;2024-03-02T11:45:02;13.30;99.90
16893;DHT22;8563;52.242;9.098;2024-03-02T11:47:34;13.40;99.90
16893;DHT22;8563;52.242;9.098;2024-03-02T11:50:07;13.30;99.90
16893;DHT22;8563;52.242;9.098;2024-03-02T11:52:42;13.40;99.90
16893;DHT22;8563;52.242;9.098;2024-03-02T11:55:16;13.50;99.90
16893;DHT22;8563;52.242;9.098;2024-03-02T11:57:52;13.50;99.90
16893;DHT22;8563;52.242;9.098;2024-03-02T12:00:24;13.50;99.90
16893;DHT22;8563;52.242;9.098;2024-03-02T12:03:00;13.50;99.90
16893;DHT22;8563;52.242;9.098;2024-03-02T12:05:33;13.40;99.90
16893;DHT22;8563;52.242;9.098;2024-03-02T12:08:07;13.40;99.90
16893;DHT22;8563;52.242;9.098;2024-03-02T12:10:40;13.40;99.90
16893;DHT22;8563;52.242;9.098;2024-03-02T12:13:12;13.30;99.90
16893;DHT22;8563;52.242;9.098;2024-03-02T12:15:44;13.40;99.90
16893;DHT22;8563;52.242;9.098;2024-03-02T12:18:16;13.30;99.90
16893;DHT22;8563;52.242;9.098;2024-03-02T12:20:50;13.40;99.90
16893;DHT22;8563;52.242;9.098;2024-03-02T12:23:25;13.40;99.90
16893;DHT22;8563;52.242;9.098;2024-03-02T12:25:57;13.40;99.90
16893;DHT22;8563;52.242;9.098;2024-03-02T12:28:29;13.40;99.90
16893;DHT22;8563;52.242;9.098;2024-03-02T12:31:01;13.50;99.90
16893;DHT22;8563;52.242;9.098;2024-03-02T12:33:34;13.50;99.90
16893;DHT22;8563;52.242;9.098;2024-03-02T12:36:09;13.50;99.90
16893;DHT22;8563;52.242;9.098;2024-03-02T12:38:45;13.50;99.90
16893;DHT22;8563;52.242;9.098;2024-03-02T12:41:17;13.60;99.90
16893;DHT22;8563;52.242;9.098;2024-03-02T12:43:49;13.60;99.90
16893;DHT22;8563;52.242;9.098;2024-03-02T12:46:21;13.70;99.90
16893;DHT22;8563;52.242;9.098;2024-03-02T12:48:54;13.70;99.90
16893;DHT22;8563;52.242;9.098;2024-03-02T12:51:26;13.70;99.90
16893;DHT22;8563;52.242;9.098;2024-03-02T12:54:00;13.70;99.90
16893;DHT22;8563;52.242;9.098;2024-03-02T12:56:33;13.80;99.90
16893;DHT22;8563;52.242;9.098;2024-03-02T12:59:05;13.80;99.90
16893;DHT22;8563;52.242;9.098;2024-03-02T13:01:38;13.70;99.90
16893;DHT22;8563;52.242;9.098;2024-03-02T13:04:10;13.60;99.90
16893;DHT22;8563;52.242;9.098;2024-03-02T13:06:42;13.70;99.90
16893;DHT22;8563;52.242;9.098;2024-03-02T13:09:16;13.70;99.90
16893;DHT22;8563;52.242;9.098;2024-03-02T13:11:48;13.70;99.90
16893;DHT22;8563;52.242;9.098;2024-03-02T13:14:22;13.70;99.90
16893;DHT22;8563;52.242;9.098;2024-03-02T13:16:57;13.70;99.90
16893;DHT22;8563;52.242;9.098;2024-03-02T13:19:31;13.70;99.90
16893;DHT22;8563;52.242;9.098;2024-03-02T13:22:03;13.70;99.90
16893;DHT22;8563;52.242;9.098;2024-03-02T13:24:38;13.80;99.90
16893;DHT22;8563;52.242;9.098;2024-03-02T13:27:13;13.90;99.90
16893;DHT22;8563;52.242;9.098;2024-03-02T13:29:45;13.90;99.90
16893;DHT22;8563;52.242;9.098;2024-03-02T13:32:18;13.90;99.90
16893;DHT22;8563;52.242;9.098;2024-03-02T13:34:54;14.00;99.90
16893;DHT22;8563;52.242;9.098;2024-03-02T13:37:26;14.00;99.90
16893;DHT22;8563;52.242;9.098;2024-03-02T13:40:00;13.90;99.90
16893;DHT22;8563;52.242;9.098;2024-03-02T13:42:32;13.90;99.90
16893;DHT22;8563;52.242;9.098;2024-03-02T13:45:06;13.90;99.90
16893;DHT22;8563;52.242;9.098;2024-03-02T13:47:38;13.90;99.90
16893;DHT22;8563;52.242;9.098;2024-03-02T13:50:10;13.90;99.90
16893;DHT22;8563;52.242;9.098;2024-03-02T13:52:43;13.90;99.90
16893;DHT22;8563;52.242;9.098;2024-03-02T13:55:16;13.90;99.90
16893;DHT22;8563;52.242;9.098;2024-03-02T13:57:49;13.90;99.90
16893;DHT22;8563;52.242;9.098;2024-03-02T14:00:21;14.00;99.90
16893;DHT22;8563;52.242;9.098;2024-03-02T14:02:53;14.00;99.90
16893;DHT22;8563;52.242;9.098;2024-03-02T14:05:26;14.00;99.90
16893;DHT22;8563;52.242;9.098;2024-03-02T14:07:58;14.10;99.90
16893;DHT22;8563;52.242;9.098;2024-03-02T14:10:32;14.10;99.90
16893;DHT22;8563;52.242;9.098;2024-03-02T14:13:06;14.10;99.90
16893;DHT22;8563;52.242;9.098;2024-03-02T14:15:38;14.00;99.90
16893;DHT22;8563;52.242;9.098;2024-03-02T14:18:11;14.00;99.90
16893;DHT22;8563;52.242;9.098;2024-03-02T14:20:43;14.00;99.90
16893;DHT22;8563;52.242;9.098;2024-03-02T14:23:15;14.10;99.90
16893;DHT22;8563;52.242;9.098;2024-03-02T14:25:49;14.00;99.90
16893;DHT22;8563;52.242;9.098;2024-03-02T14:28:21;14.00;99.90
16893;DHT22;8563;52.242;9.098;2024-03-02T14:30:53;14.10;99.90
16893;DHT22;8563;52.242;9.098;2024-03-02T14:33:26;14.00;99.90
16893;DHT22;8563;52.242;9.098;2024-03-02T14:35:58;14.00;99.90
16893;DHT22;8563;52.242;9.098;2024-03-02T14:38:30;14.00;99.90
16893;DHT22;8563;52.242;9.098;2024-03-02T14:41:04;14.10;99.90
16893;DHT22;8563;52.242;9.098;2024-03-02T14:43:37;14.10;99.50
16893;DHT22;8563;52.242;9.098;2024-03-02T14:46:09;14.10;99.90
16893;DHT22;8563;52.242;9.098;2024-03-02T14:48:44;14.10;99.90
16893;DHT22;8563;52.242;9.098;2024-03-02T14:51:16;14.20;99.70
16893;DHT22;8563;52.242;9.098;2024-03-02T14:53:49;14.10;99.60
16893;DHT22;8563;52.242;9.098;2024-03-02T14:56:24;14.00;99.00
16893;DHT22;8563;52.242;9.098;2024-03-02T14:58:56;14.00;99.20
16893;DHT22;8563;52.242;9.098;2024-03-02T15:01:28;13.90;99.30
16893;DHT22;8563;52.242;9.098;2024-03-02T15:04:00;13.90;98.70
16893;DHT22;8563;52.242;9.098;2024-03-02T15:06:33;13.90;98.60
16893;DHT22;8563;52.242;9.098;2024-03-02T15:09:05;13.90;98.60
16893;DHT22;8563;52.242;9.098;2024-03-02T15:11:39;13.80;98.50
16893;DHT22;8563;52.242;9.098;2024-03-02T15:14:11;13.70;98.60
16893;DHT22;8563;52.242;9.098;2024-03-02T15:16:44;13.70;98.70
16893;DHT22;8563;52.242;9.098;2024-03-02T15:19:16;13.60;98.70
16893;DHT22;8563;52.242;9.098;2024-03-02T15:21:48;13.60;98.90
16893;DHT22;8563;52.242;9.098;2024-03-02T15:24:21;13.50;99.20
16893;DHT22;8563;52.242;9.098;2024-03-02T15:26:54;13.50;99.40
16893;DHT22;8563;52.242;9.098;2024-03-02T15:29:27;13.50;99.30
16893;DHT22;8563;52.242;9.098;2024-03-02T15:32:02;13.50;99.50
16893;DHT22;8563;52.242;9.098;2024-03-02T15:34:36;13.50;99.30
16893;DHT22;8563;52.242;9.098;2024-03-02T15:37:08;13.50;99.90
16893;DHT22;8563;52.242;9.098;2024-03-02T15:39:41;13.40;99.80
16893;DHT22;8563;52.242;9.098;2024-03-02T15:42:16;13.40;99.90
16893;DHT22;8563;52.242;9.098;2024-03-02T15:44:48;13.40;99.90
16893;DHT22;8563;52.242;9.098;2024-03-02T15:47:20;13.40;99.90
16893;DHT22;8563;52.242;9.098;2024-03-02T15:49:53;13.40;99.70
16893;DHT22;8563;52.242;9.098;2024-03-02T15:52:25;13.30;99.60
16893;DHT22;8563;52.242;9.098;2024-03-02T15:54:57;13.30;99.70
16893;DHT22;8563;52.242;9.098;2024-03-02T15:57:31;13.30;98.90
16893;DHT22;8563;52.242;9.098;2024-03-02T16:00:05;13.30;99.40
16893;DHT22;8563;52.242;9.098;2024-03-02T16:02:42;13.20;99.10
16893;DHT22;8563;52.242;9.098;2024-03-02T16:05:15;13.20;99.00
16893;DHT22;8563;52.242;9.098;2024-03-02T16:07:47;13.20;98.80
16893;DHT22;8563;52.242;9.098;2024-03-02T16:10:20;13.10;99.20
16893;DHT22;8563;52.242;9.098;2024-03-02T16:12:53;13.10;99.40
16893;DHT22;8563;52.242;9.098;2024-03-02T16:15:30;13.00;99.50
16893;DHT22;8563;52.242;9.098;2024-03-02T16:18:04;12.90;99.40
16893;DHT22;8563;52.242;9.098;2024-03-02T16:20:36;12.80;99.60
16893;DHT22;8563;52.242;9.098;2024-03-02T16:23:08;12.80;99.60
16893;DHT22;8563;52.242;9.098;2024-03-02T16:25:41;12.80;99.60
16893;DHT22;8563;52.242;9.098;2024-03-02T16:28:14;12.70;99.70
16893;DHT22;8563;52.242;9.098;2024-03-02T16:30:47;12.70;99.90
16893;DHT22;8563;52.242;9.098;2024-03-02T16:33:19;12.70;99.90
16893;DHT22;8563;52.242;9.098;2024-03-02T16:35:52;12.60;99.90